createdAt,value
2022-12-05T00:01:23.356Z,37.80
2022-12-05T00:03:51.587Z,33.83
2022-12-05T00:06:18.969Z,37.45
2022-12-05T00:08:45.952Z,33.60
2022-12-05T00:11:14.659Z,36.65
2022-12-05T00:13:42.508Z,36.47
2022-12-05T00:16:11.449Z,35.30
2022-12-05T00:18:38.541Z,36.35
2022-12-05T00:21:05.731Z,33.95
2022-12-05T00:23:32.216Z,35.40
2022-12-05T00:26:03.439Z,37.85
2022-12-05T00:28:31.930Z,31.95
2022-12-05T00:31:02.541Z,34.55
2022-12-05T00:33:29.087Z,32.33
2022-12-05T00:35:55.387Z,33.83
2022-12-05T00:38:21.698Z,33.65
2022-12-05T00:40:48.023Z,34.03
2022-12-05T00:43:14.406Z,35.47
2022-12-05T00:45:40.867Z,32.05
2022-12-05T00:48:07.286Z,31.88
2022-12-05T00:50:33.705Z,32.88
2022-12-05T00:53:00.096Z,32.33
2022-12-05T00:55:26.388Z,33.95
2022-12-05T00:57:52.712Z,35.72
2022-12-05T01:00:19.420Z,33.63
2022-12-05T01:02:45.847Z,30.95
2022-12-05T01:05:12.875Z,32.75
2022-12-05T01:07:39.342Z,30.55
2022-12-05T01:10:06.486Z,30.98
2022-12-05T01:12:33.341Z,30.60
2022-12-05T01:14:59.689Z,30.25
2022-12-05T01:17:26.194Z,30.52
2022-12-05T01:19:52.722Z,30.98
2022-12-05T01:22:19.087Z,30.58
2022-12-05T01:24:45.426Z,31.20
2022-12-05T01:27:11.835Z,30.95
2022-12-05T01:29:38.247Z,29.27
2022-12-05T01:32:04.910Z,30.00
2022-12-05T01:34:31.370Z,27.42
2022-12-05T01:36:57.752Z,29.42
2022-12-05T01:39:24.199Z,28.63
2022-12-05T01:41:50.819Z,30.92
2022-12-05T01:44:17.136Z,30.05
2022-12-05T01:46:44.596Z,31.58
2022-12-05T01:49:15.227Z,28.92
2022-12-05T01:51:46.687Z,28.27
2022-12-05T01:54:14.873Z,30.77
2022-12-05T01:56:44.412Z,33.25
2022-12-05T01:59:12.229Z,29.27
2022-12-05T02:01:39.362Z,33.88
2022-12-05T02:04:06.664Z,32.70
2022-12-05T02:06:33.855Z,30.65
2022-12-05T02:09:00.482Z,36.72
2022-12-05T02:11:29.584Z,29.05
2022-12-05T02:14:38.819Z,33.35
2022-12-05T02:17:42.407Z,29.70
2022-12-05T02:20:38.576Z,29.02
2022-12-05T02:23:29.385Z,33.92
2022-12-05T02:26:16.850Z,32.00
2022-12-05T02:29:05.071Z,32.58
2022-12-05T02:31:51.412Z,30.13
2022-12-05T02:34:31.672Z,35.53
2022-12-05T02:37:23.063Z,30.48
2022-12-05T02:40:00.853Z,35.22
2022-12-05T02:42:42.873Z,34.78
2022-12-05T02:45:12.165Z,33.88
2022-12-05T02:47:44.820Z,31.08
2022-12-05T02:50:15.505Z,34.03
2022-12-05T02:52:44.913Z,35.97
2022-12-05T02:55:14.439Z,32.63
2022-12-05T02:57:46.755Z,32.35
2022-12-05T03:00:13.664Z,32.17
2022-12-05T03:02:41.213Z,31.50
2022-12-05T03:05:25.853Z,31.00
2022-12-05T03:07:54.907Z,31.55
2022-12-05T03:10:23.825Z,32.95
2022-12-05T03:12:58.046Z,32.50
2022-12-05T03:18:10.363Z,33.92
2022-12-05T03:21:21.651Z,35.42
2022-12-05T03:23:53.878Z,32.85
2022-12-05T03:26:34.885Z,33.80
2022-12-05T03:29:09.975Z,35.22
2022-12-05T03:31:52.769Z,33.22
2022-12-05T03:34:32.258Z,33.90
2022-12-05T03:37:05.282Z,34.92
2022-12-05T03:39:35.930Z,35.83
2022-12-05T03:42:11.100Z,35.30
2022-12-05T03:44:45.093Z,35.90
2022-12-05T03:47:21.516Z,36.95
2022-12-05T03:49:52.608Z,38.35
2022-12-05T03:52:27.225Z,37.95
2022-12-05T03:54:57.403Z,38.67
2022-12-05T03:57:32.996Z,40.05
2022-12-05T04:00:04.170Z,39.25
2022-12-05T04:02:45.093Z,43.63
2022-12-05T04:05:26.669Z,41.75
2022-12-05T04:08:01.437Z,43.70
2022-12-05T04:10:48.662Z,45.22
2022-12-05T04:13:44.077Z,43.80
2022-12-05T04:16:35.609Z,46.88
2022-12-05T04:19:09.205Z,43.50
2022-12-05T04:21:43.080Z,47.90
2022-12-05T04:24:34.081Z,47.65
2022-12-05T04:27:15.503Z,46.33
2022-12-05T04:30:02.641Z,49.13
2022-12-05T04:32:38.516Z,50.88
2022-12-05T04:35:13.985Z,51.75
2022-12-05T04:37:44.435Z,50.80
2022-12-05T04:40:28.274Z,51.40
2022-12-05T04:42:56.487Z,54.25
2022-12-05T04:45:25.671Z,50.05
2022-12-05T04:47:57.202Z,48.53
2022-12-05T04:50:25.944Z,51.08
2022-12-05T04:52:58.024Z,50.55
2022-12-05T04:55:26.669Z,53.72
2022-12-05T04:58:01.765Z,52.72
2022-12-05T05:00:30.646Z,52.17
2022-12-05T05:03:23.231Z,52.22
2022-12-05T05:05:53.044Z,51.22
2022-12-05T05:08:22.937Z,51.47
2022-12-05T05:11:03.914Z,54.10
2022-12-05T05:13:30.310Z,52.38
2022-12-05T05:15:56.691Z,53.10
2022-12-05T05:18:23.181Z,53.58
2022-12-05T05:20:49.640Z,53.25
2022-12-05T05:23:16.087Z,53.10
2022-12-05T05:25:42.441Z,52.33
2022-12-05T05:28:08.788Z,54.58
2022-12-05T05:30:35.168Z,53.47
2022-12-05T05:33:01.609Z,55.25
2022-12-05T05:35:28.019Z,52.88
2022-12-05T05:37:54.373Z,52.50
2022-12-05T05:40:20.704Z,52.42
2022-12-05T05:42:49.574Z,55.15
2022-12-05T05:45:16.668Z,52.97
2022-12-05T05:47:43.183Z,53.47
2022-12-05T05:50:13.872Z,51.40
2022-12-05T05:52:42.797Z,53.17
2022-12-05T05:55:09.889Z,52.33
2022-12-05T05:57:36.708Z,53.83
2022-12-05T06:00:06.508Z,53.30
2022-12-05T06:02:34.918Z,55.90
2022-12-05T06:05:01.901Z,54.03
2022-12-05T06:07:28.418Z,56.35
2022-12-05T06:09:54.787Z,54.83
2022-12-05T06:12:21.273Z,54.75
2022-12-05T06:14:49.189Z,55.63
2022-12-05T06:17:16.453Z,56.55
2022-12-05T06:19:42.881Z,58.47
2022-12-05T06:22:09.572Z,56.85
2022-12-05T06:24:35.914Z,57.67
2022-12-05T06:27:02.254Z,57.50
2022-12-05T06:29:33.518Z,57.08
2022-12-05T06:32:00.448Z,58.22
2022-12-05T06:34:26.913Z,57.30
2022-12-05T06:36:53.225Z,55.65
2022-12-05T06:39:19.608Z,59.78
2022-12-05T06:41:46.321Z,55.55
2022-12-05T06:44:12.689Z,56.92
2022-12-05T06:46:39.051Z,57.90
2022-12-05T06:49:05.401Z,58.83
2022-12-05T06:51:31.710Z,57.58
2022-12-05T06:53:58.232Z,59.00
2022-12-05T06:56:24.541Z,59.72
2022-12-05T06:58:52.364Z,58.38
2022-12-05T07:01:40.680Z,60.33
2022-12-05T07:04:12.556Z,54.58
2022-12-05T07:06:40.658Z,56.05
2022-12-05T07:09:07.605Z,54.30
2022-12-05T07:11:34.959Z,51.38
2022-12-05T07:14:10.168Z,51.85
2022-12-05T07:16:41.182Z,48.90
2022-12-05T07:19:07.647Z,50.92
2022-12-05T07:21:33.961Z,48.72
2022-12-05T07:24:00.265Z,49.78
2022-12-05T07:26:26.679Z,52.95
2022-12-05T07:28:57.275Z,51.90
2022-12-05T07:31:25.944Z,50.88
2022-12-05T07:33:52.370Z,50.65
2022-12-05T07:36:22.337Z,51.40
2022-12-05T07:38:48.740Z,51.40
2022-12-05T07:41:21.158Z,54.42
2022-12-05T07:43:47.563Z,52.67
2022-12-05T07:46:14.465Z,54.85
2022-12-05T07:48:40.933Z,51.80
2022-12-05T07:51:09.456Z,49.13
2022-12-05T07:53:36.621Z,48.03
2022-12-05T07:56:05.695Z,48.17
2022-12-05T07:58:33.144Z,48.80
2022-12-05T08:01:11.588Z,48.55
2022-12-05T08:03:41.636Z,47.88
2022-12-05T08:06:10.674Z,49.33
2022-12-05T08:08:37.210Z,52.35
2022-12-05T08:11:23.703Z,53.35
2022-12-05T08:13:50.353Z,54.63
2022-12-05T08:16:19.409Z,54.55
2022-12-05T08:18:46.814Z,58.55
2022-12-05T08:21:16.081Z,58.20
2022-12-05T08:23:45.824Z,61.58
2022-12-05T08:26:15.202Z,60.35
2022-12-05T08:28:42.949Z,61.10
2022-12-05T08:31:17.513Z,60.78
2022-12-05T08:33:44.391Z,58.40
2022-12-05T08:36:18.252Z,56.88
2022-12-05T08:38:45.556Z,58.72
2022-12-05T08:41:15.009Z,58.53
2022-12-05T08:43:41.724Z,56.28
2022-12-05T08:46:08.984Z,57.67
2022-12-05T08:48:36.434Z,58.13
2022-12-05T08:51:08.125Z,59.03
2022-12-05T08:53:40.925Z,59.85
2022-12-05T08:56:10.987Z,55.75
2022-12-05T08:58:37.803Z,63.47
2022-12-05T09:01:15.478Z,61.13
2022-12-05T09:03:47.634Z,60.33
2022-12-05T09:06:20.449Z,56.90
2022-12-05T09:08:47.443Z,63.17
2022-12-05T09:11:15.330Z,63.60
2022-12-05T09:13:42.631Z,59.65
2022-12-05T09:16:16.042Z,61.30
2022-12-05T09:18:43.552Z,51.78
2022-12-05T09:21:16.583Z,60.83
2022-12-05T09:23:43.419Z,65.05
2022-12-05T09:26:12.821Z,62.78
2022-12-05T09:28:39.891Z,63.95
2022-12-05T09:31:13.102Z,63.45
2022-12-05T09:33:39.806Z,63.17
2022-12-05T09:36:09.409Z,63.30
2022-12-05T09:38:35.789Z,61.47
2022-12-05T09:41:17.675Z,60.63
2022-12-05T09:43:58.666Z,61.78
2022-12-05T09:46:43.880Z,59.58
2022-12-05T09:49:12.868Z,62.47
2022-12-05T09:51:44.702Z,58.05
2022-12-05T09:54:13.213Z,63.63
2022-12-05T09:56:43.343Z,59.88
2022-12-05T09:59:20.423Z,58.30
2022-12-05T10:02:07.337Z,60.85
2022-12-05T10:05:00.375Z,64.70
2022-12-05T10:07:38.240Z,60.95
2022-12-05T10:10:20.175Z,63.10
2022-12-05T10:13:17.601Z,62.63
2022-12-05T10:15:53.024Z,66.80
2022-12-05T10:18:31.905Z,66.07
2022-12-05T10:21:15.421Z,70.07
2022-12-05T10:23:58.270Z,70.53
2022-12-05T10:26:30.708Z,70.97
2022-12-05T10:29:02.578Z,69.57
2022-12-05T10:31:36.126Z,69.97
2022-12-05T10:34:12.139Z,67.95
2022-12-05T10:36:38.497Z,69.15
2022-12-05T10:39:11.128Z,62.90
2022-12-05T10:41:38.071Z,66.63
2022-12-05T10:44:05.728Z,70.05
2022-12-05T10:46:32.198Z,67.00
2022-12-05T10:48:59.416Z,65.13
2022-12-05T10:51:34.011Z,66.70
2022-12-05T10:54:22.656Z,65.55
2022-12-05T10:56:53.766Z,68.82
2022-12-05T10:59:25.574Z,63.08
2022-12-05T11:01:55.165Z,64.43
2022-12-05T11:04:30.494Z,63.25
2022-12-05T11:07:00.545Z,65.13
2022-12-05T11:09:32.660Z,60.03
2022-12-05T11:12:05.548Z,60.92
2022-12-05T11:14:34.325Z,60.65
2022-12-05T11:17:02.249Z,60.85
2022-12-05T11:19:32.602Z,58.97
2022-12-05T11:21:59.534Z,59.05
2022-12-05T11:24:25.810Z,57.45
2022-12-05T11:26:52.755Z,58.63
2022-12-05T11:29:58.127Z,55.38
2022-12-05T11:32:27.705Z,53.72
2022-12-05T11:35:03.211Z,56.35
2022-12-05T11:37:43.195Z,53.42
2022-12-05T11:40:16.308Z,56.13
2022-12-05T11:43:29.892Z,53.93
2022-12-05T11:46:11.961Z,54.38
2022-12-05T11:49:08.299Z,57.78
2022-12-05T11:51:54.817Z,58.60
2022-12-05T11:55:05.110Z,56.92
2022-12-05T11:57:52.584Z,54.65
2022-12-05T12:00:22.381Z,58.38
2022-12-05T12:03:33.804Z,58.42
2022-12-05T12:06:21.055Z,59.70
2022-12-05T12:09:10.458Z,59.17
2022-12-05T12:11:49.984Z,57.33
2022-12-05T12:14:25.376Z,60.72
2022-12-05T12:17:20.659Z,54.42
2022-12-05T12:19:55.399Z,55.33
2022-12-05T12:22:31.932Z,60.40
2022-12-05T12:25:16.487Z,54.80
2022-12-05T12:28:05.227Z,52.80
2022-12-05T12:30:57.470Z,62.78
2022-12-05T12:34:21.973Z,57.95
2022-12-05T12:37:04.807Z,53.17
2022-12-05T12:39:49.611Z,53.33
2022-12-05T12:42:58.712Z,56.70
2022-12-05T12:45:34.301Z,53.60
2022-12-05T12:48:16.083Z,54.28
2022-12-05T12:50:45.246Z,55.05
2022-12-05T12:53:33.695Z,55.35
2022-12-05T12:56:21.392Z,52.20
2022-12-05T12:58:56.961Z,50.80
2022-12-05T13:01:54.007Z,54.08
2022-12-05T13:04:28.863Z,55.92
2022-12-05T13:07:04.888Z,55.78
2022-12-05T13:09:47.321Z,58.83
2022-12-05T13:12:23.137Z,57.45
2022-12-05T13:14:54.287Z,54.65
2022-12-05T13:17:23.365Z,59.47
2022-12-05T13:19:52.320Z,57.30
2022-12-05T13:22:22.334Z,59.80
2022-12-05T13:24:53.026Z,60.88
2022-12-05T13:30:57.676Z,59.40
2022-12-05T13:33:32.737Z,59.55
2022-12-05T13:36:27.229Z,60.63
2022-12-05T13:39:21.757Z,56.58
2022-12-05T13:42:11.000Z,56.30
2022-12-05T13:44:45.131Z,57.40
2022-12-05T13:47:37.703Z,56.47
2022-12-05T13:50:14.252Z,54.08
2022-12-05T13:52:52.090Z,57.47
2022-12-05T13:55:36.549Z,54.10
2022-12-05T13:58:37.666Z,54.47
2022-12-05T14:01:37.010Z,57.63
2022-12-05T14:04:23.247Z,59.78
2022-12-05T14:06:52.633Z,58.25
2022-12-05T14:09:19.055Z,60.00
2022-12-05T14:12:12.152Z,59.20
2022-12-05T14:15:03.946Z,56.90
2022-12-05T14:17:44.145Z,52.03
2022-12-05T14:20:21.475Z,53.53
2022-12-05T14:22:54.716Z,52.20
2022-12-05T14:25:35.727Z,55.80
2022-12-05T14:28:18.724Z,52.08
2022-12-05T14:31:25.848Z,54.00
2022-12-05T14:34:36.885Z,53.75
2022-12-05T14:37:03.321Z,53.97
2022-12-05T14:39:44.007Z,54.80
2022-12-05T14:42:22.948Z,55.70
2022-12-05T14:44:51.893Z,56.17
2022-12-05T14:47:25.332Z,52.20
2022-12-05T14:50:04.280Z,53.75
2022-12-05T14:52:31.984Z,53.25
2022-12-05T14:55:03.986Z,54.90
2022-12-05T14:57:34.437Z,52.22
2022-12-05T15:00:06.548Z,55.20
2022-12-05T15:02:39.325Z,55.15
2022-12-05T15:05:22.336Z,56.72
2022-12-05T15:07:50.918Z,54.05
2022-12-05T15:10:24.945Z,58.83
2022-12-05T15:12:58.227Z,55.10
2022-12-05T15:15:41.551Z,55.03
2022-12-05T15:18:28.686Z,53.72
2022-12-05T15:21:16.262Z,54.05
2022-12-05T15:23:42.601Z,57.67
2022-12-05T15:29:12.173Z,63.22
2022-12-05T15:31:58.460Z,64.10
2022-12-05T15:34:34.937Z,69.40
2022-12-05T15:37:29.103Z,64.97
2022-12-05T15:40:09.216Z,63.78
2022-12-05T15:42:43.645Z,64.97
2022-12-05T15:45:15.924Z,66.20
2022-12-05T15:47:50.764Z,68.13
2022-12-05T15:50:22.800Z,71.07
2022-12-05T15:53:00.020Z,69.07
2022-12-05T15:55:26.303Z,74.18
2022-12-05T15:58:09.652Z,68.93
2022-12-05T16:00:43.649Z,66.65
2022-12-05T16:03:19.984Z,64.28
2022-12-05T16:05:49.087Z,68.40
2022-12-05T16:08:15.967Z,70.30
2022-12-05T16:10:43.192Z,69.20
2022-12-05T16:13:15.501Z,67.97
2022-12-05T16:15:56.584Z,77.10
2022-12-05T16:18:31.364Z,74.70
2022-12-05T16:20:58.296Z,71.78
2022-12-05T16:23:37.302Z,75.88
2022-12-05T16:26:12.478Z,71.03
2022-12-05T16:28:39.227Z,72.57
2022-12-05T16:31:06.643Z,75.22
2022-12-05T16:33:33.285Z,75.82
2022-12-05T16:36:12.726Z,75.75
2022-12-05T16:38:40.959Z,75.38
2022-12-05T16:41:09.112Z,77.50
2022-12-05T16:43:35.449Z,70.57
2022-12-05T16:46:36.766Z,80.05
2022-12-05T16:49:32.013Z,68.68
2022-12-05T16:52:07.492Z,69.03
2022-12-05T16:54:33.953Z,72.50
2022-12-05T16:57:01.532Z,75.20
2022-12-05T16:59:33.919Z,79.47
2022-12-05T17:02:02.193Z,75.00
2022-12-05T17:04:31.224Z,75.25
2022-12-05T17:06:57.594Z,76.07
2022-12-05T17:09:24.298Z,73.57
2022-12-05T17:11:53.815Z,74.30
2022-12-05T17:14:20.382Z,70.28
2022-12-05T17:16:46.965Z,75.90
2022-12-05T17:19:14.537Z,72.78
2022-12-05T17:21:42.198Z,71.68
2022-12-05T17:24:18.937Z,72.32
2022-12-05T17:26:47.253Z,71.75
2022-12-05T17:29:13.608Z,68.65
2022-12-05T17:31:40.138Z,71.68
2022-12-05T17:34:15.617Z,74.30
2022-12-05T17:36:42.059Z,69.72
2022-12-05T17:39:09.166Z,71.40
2022-12-05T17:41:36.079Z,70.72
2022-12-05T17:44:04.010Z,74.15
2022-12-05T17:46:30.625Z,67.97
2022-12-05T17:48:56.994Z,76.88
2022-12-05T17:51:24.020Z,75.80
2022-12-05T17:53:52.823Z,70.10
2022-12-05T17:56:19.421Z,76.38
2022-12-05T17:58:46.096Z,72.00
2022-12-05T18:01:19.251Z,73.10
2022-12-05T18:03:49.315Z,79.32
2022-12-05T18:06:16.884Z,71.25
2022-12-05T18:08:49.704Z,75.00
2022-12-05T18:11:16.559Z,70.13
2022-12-05T18:13:45.181Z,74.10
2022-12-05T18:16:12.457Z,73.40
2022-12-05T18:18:39.456Z,77.63
2022-12-05T18:21:12.027Z,74.03
2022-12-05T18:23:40.354Z,75.35
2022-12-05T18:26:09.371Z,74.70
2022-12-05T18:28:37.588Z,71.95
2022-12-05T18:31:11.908Z,71.28
2022-12-05T18:33:41.160Z,74.78
2022-12-05T18:36:10.138Z,74.68
2022-12-05T18:38:37.178Z,79.68
2022-12-05T18:41:06.438Z,73.60
2022-12-05T18:43:33.111Z,71.97
2022-12-05T18:46:01.069Z,73.97
2022-12-05T18:48:39.318Z,80.18
2022-12-05T18:51:11.612Z,76.47
2022-12-05T18:53:38.718Z,73.30
2022-12-05T18:56:22.162Z,74.93
2022-12-05T19:01:28.439Z,72.35
2022-12-05T19:03:57.079Z,77.82
2022-12-05T19:06:29.378Z,81.30
2022-12-05T19:08:58.394Z,73.47
2022-12-05T19:11:26.476Z,77.40
2022-12-05T19:14:01.220Z,76.38
2022-12-05T19:16:29.073Z,75.25
2022-12-05T19:18:58.371Z,74.90
2022-12-05T19:21:26.524Z,77.72
2022-12-05T19:23:53.610Z,75.90
2022-12-05T19:26:20.785Z,72.95
2022-12-05T19:28:47.643Z,82.07
2022-12-05T19:31:17.228Z,78.32
2022-12-05T19:33:45.794Z,69.97
2022-12-05T19:36:15.371Z,75.88
2022-12-05T19:38:43.642Z,75.57
2022-12-05T19:41:12.547Z,76.82
2022-12-05T19:43:40.780Z,81.28
2022-12-05T19:46:10.960Z,77.95
2022-12-05T19:48:37.540Z,73.78
2022-12-05T19:51:04.268Z,78.43
2022-12-05T19:53:33.614Z,76.72
2022-12-05T19:56:01.764Z,76.70
2022-12-05T19:58:30.730Z,72.20
2022-12-05T20:01:11.092Z,72.35
2022-12-05T20:03:37.870Z,70.43
2022-12-05T20:06:07.067Z,71.82
2022-12-05T20:08:35.318Z,72.15
2022-12-05T20:11:11.285Z,73.40
2022-12-05T20:13:46.586Z,70.10
2022-12-05T20:16:15.765Z,69.03
2022-12-05T20:18:43.935Z,70.72
2022-12-05T20:21:12.728Z,70.15
2022-12-05T20:23:39.376Z,73.07
2022-12-05T20:26:11.975Z,75.32
2022-12-05T20:28:39.044Z,76.50
2022-12-05T20:31:07.056Z,76.15
2022-12-05T20:33:34.139Z,71.18
2022-12-05T20:36:05.942Z,67.32
2022-12-05T20:38:32.474Z,73.68
2022-12-05T20:41:07.537Z,72.35
2022-12-05T20:43:34.677Z,71.20
2022-12-05T20:46:10.288Z,77.50
2022-12-05T20:48:36.726Z,70.25
2022-12-05T20:51:08.223Z,72.50
2022-12-05T20:53:36.986Z,71.20
2022-12-05T20:56:08.727Z,68.88
2022-12-05T20:58:36.097Z,70.38
2022-12-05T21:01:06.227Z,65.75
2022-12-05T21:03:32.849Z,70.25
2022-12-05T21:05:59.732Z,72.43
2022-12-05T21:08:26.116Z,69.18
2022-12-05T21:10:52.910Z,68.65
2022-12-05T21:13:19.643Z,69.95
2022-12-05T21:15:46.143Z,70.57
2022-12-05T21:18:12.619Z,72.53
2022-12-05T21:20:42.122Z,66.70
2022-12-05T21:23:09.073Z,67.55
2022-12-05T21:25:35.416Z,69.50
2022-12-05T21:28:02.109Z,69.80
2022-12-05T21:30:28.470Z,68.78
2022-12-05T21:32:55.571Z,67.88
2022-12-05T21:35:21.961Z,64.43
2022-12-05T21:37:48.305Z,70.68
2022-12-05T21:40:14.646Z,70.35
2022-12-05T21:42:41.021Z,73.05
2022-12-05T21:45:07.838Z,72.30
2022-12-05T21:47:34.235Z,71.78
2022-12-05T21:50:00.909Z,72.57
2022-12-05T21:52:27.434Z,72.00
2022-12-05T21:54:53.812Z,71.18
2022-12-05T21:57:20.234Z,76.22
2022-12-05T21:59:46.637Z,70.32
2022-12-05T22:02:12.964Z,72.28
2022-12-05T22:04:39.264Z,70.65
2022-12-05T22:07:05.605Z,72.18
2022-12-05T22:09:31.924Z,71.43
2022-12-05T22:11:58.371Z,70.38
2022-12-05T22:14:24.783Z,74.60
2022-12-05T22:16:51.205Z,70.55
2022-12-05T22:19:17.540Z,72.88
2022-12-05T22:21:43.901Z,71.75
2022-12-05T22:24:10.278Z,70.85
2022-12-05T22:26:36.619Z,72.63
2022-12-05T22:29:02.933Z,71.05
2022-12-05T22:31:29.369Z,72.70
2022-12-05T22:33:55.730Z,72.72
2022-12-05T22:36:24.084Z,76.53
2022-12-05T22:38:50.616Z,74.25
2022-12-05T22:41:22.688Z,76.10
2022-12-05T22:43:52.859Z,77.80
2022-12-05T22:46:20.537Z,76.18
2022-12-05T22:48:48.228Z,76.60
2022-12-05T22:51:15.397Z,74.03
2022-12-05T22:53:42.329Z,79.20
2022-12-05T22:56:11.130Z,80.95
2022-12-05T22:58:38.593Z,76.43
2022-12-05T23:01:12.470Z,80.00
2022-12-05T23:03:39.605Z,76.35
2022-12-05T23:06:11.478Z,75.68
2022-12-05T23:08:39.182Z,74.30
2022-12-05T23:11:06.496Z,80.93
2022-12-05T23:13:34.886Z,78.93
2022-12-05T23:16:11.001Z,77.88
2022-12-05T23:18:47.271Z,77.65
2022-12-05T23:21:17.994Z,76.35
2022-12-05T23:23:44.935Z,79.18
2022-12-05T23:26:11.979Z,78.72
2022-12-05T23:28:38.657Z,78.80
2022-12-05T23:31:06.568Z,76.03
2022-12-05T23:33:33.344Z,82.00
2022-12-05T23:35:59.737Z,78.55
2022-12-05T23:38:26.214Z,78.93
2022-12-05T23:41:00.779Z,78.30
2022-12-05T23:43:28.796Z,78.80
2022-12-05T23:45:55.301Z,82.30
2022-12-05T23:48:21.864Z,82.32
2022-12-05T23:50:59.915Z,80.43
2022-12-05T23:53:27.403Z,80.85
2022-12-05T23:55:53.852Z,83.65
2022-12-05T23:58:20.402Z,81.03
